createdAt,value
2017-10-17T00:00:58.163Z,22.9
2017-10-17T00:02:06.252Z,22.9
2017-10-17T00:03:14.338Z,22.8
2017-10-17T00:04:22.425Z,22.9
2017-10-17T00:05:30.514Z,22.9
2017-10-17T00:06:38.601Z,22.9
2017-10-17T00:07:46.691Z,22.9
2017-10-17T00:08:54.776Z,22.8
2017-10-17T00:10:02.862Z,22.9
2017-10-17T00:11:10.950Z,22.9
2017-10-17T00:12:19.049Z,22.9
2017-10-17T00:13:27.135Z,22.8
2017-10-17T00:14:35.224Z,22.8
2017-10-17T00:15:43.312Z,22.8
2017-10-17T00:16:51.470Z,22.9
2017-10-17T00:17:59.557Z,22.9
2017-10-17T00:19:07.644Z,22.8
2017-10-17T00:20:15.732Z,22.9
2017-10-17T00:21:23.845Z,22.9
2017-10-17T00:22:31.928Z,22.9
2017-10-17T00:23:40.016Z,22.9
2017-10-17T00:24:48.104Z,22.8
2017-10-17T00:25:56.192Z,22.9
2017-10-17T00:27:04.280Z,22.9
2017-10-17T00:28:12.364Z,22.9
2017-10-17T00:29:20.456Z,22.9
2017-10-17T00:30:28.540Z,22.8
2017-10-17T00:31:36.630Z,22.9
2017-10-17T00:32:44.716Z,22.8
2017-10-17T00:33:52.803Z,22.8
2017-10-17T00:35:00.891Z,22.9
2017-10-17T00:36:08.980Z,22.8
2017-10-17T00:37:17.067Z,22.8
2017-10-17T00:38:25.152Z,22.8
2017-10-17T00:39:33.242Z,22.8
2017-10-17T00:40:41.330Z,22.8
2017-10-17T00:41:49.421Z,22.8
2017-10-17T00:42:57.505Z,22.8
2017-10-17T00:44:05.598Z,22.8
2017-10-17T00:45:13.752Z,22.8
2017-10-17T00:46:21.769Z,22.8
2017-10-17T00:47:29.854Z,22.8
2017-10-17T00:48:37.941Z,22.8
2017-10-17T00:49:46.028Z,22.8
2017-10-17T00:50:54.117Z,22.8
2017-10-17T00:52:02.205Z,22.8
2017-10-17T00:53:10.291Z,22.9
2017-10-17T00:54:18.384Z,22.8
2017-10-17T00:55:26.468Z,22.8
2017-10-17T00:56:34.555Z,22.8
2017-10-17T00:57:42.645Z,22.8
2017-10-17T00:58:50.730Z,22.7
2017-10-17T00:59:58.817Z,22.8
2017-10-17T01:01:06.904Z,22.8
2017-10-17T01:02:14.991Z,22.9
2017-10-17T01:03:23.079Z,22.8
2017-10-17T01:04:31.167Z,22.8
2017-10-17T01:05:39.255Z,22.7
2017-10-17T01:06:47.343Z,22.8
2017-10-17T01:07:55.444Z,22.7
2017-10-17T01:09:03.532Z,22.8
2017-10-17T01:10:11.621Z,22.8
2017-10-17T01:11:19.707Z,22.8
2017-10-17T01:12:27.795Z,22.8
2017-10-17T01:13:35.882Z,22.8
2017-10-17T01:14:43.976Z,22.8
2017-10-17T01:15:52.060Z,22.8
2017-10-17T01:17:00.290Z,22.7
2017-10-17T01:18:08.380Z,22.8
2017-10-17T01:19:16.464Z,22.8
2017-10-17T01:20:24.553Z,22.8
2017-10-17T01:21:32.637Z,22.8
2017-10-17T01:22:40.725Z,22.7
2017-10-17T01:23:48.816Z,22.7
2017-10-17T01:24:56.901Z,22.6
2017-10-17T01:26:04.990Z,22.8
2017-10-17T01:27:13.077Z,22.8
2017-10-17T01:28:21.177Z,22.7
2017-10-17T01:29:29.260Z,22.8
2017-10-17T01:30:37.348Z,22.6
2017-10-17T01:31:45.436Z,22.6
2017-10-17T01:32:53.522Z,22.6
2017-10-17T01:34:01.609Z,22.7
2017-10-17T01:35:09.853Z,22.6
2017-10-17T01:36:17.952Z,22.6
2017-10-17T01:37:26.038Z,22.7
2017-10-17T01:38:34.127Z,22.6
2017-10-17T01:39:42.214Z,22.6
2017-10-17T01:40:50.300Z,22.6
2017-10-17T01:41:58.388Z,22.6
2017-10-17T01:43:06.499Z,22.6
2017-10-17T01:44:14.562Z,22.7
2017-10-17T01:45:22.656Z,22.6
2017-10-17T01:46:30.740Z,22.6
2017-10-17T01:47:38.836Z,22.6
2017-10-17T01:48:46.925Z,22.6
2017-10-17T01:49:55.019Z,22.6
2017-10-17T01:51:03.106Z,22.6
2017-10-17T01:52:11.195Z,22.6
2017-10-17T01:53:19.283Z,22.6
2017-10-17T01:54:27.370Z,22.6
2017-10-17T01:55:35.463Z,22.6
2017-10-17T01:56:43.563Z,22.6
2017-10-17T01:57:51.656Z,22.6
2017-10-17T01:58:59.733Z,22.6
2017-10-17T02:00:07.822Z,22.6
2017-10-17T02:01:15.908Z,22.5
2017-10-17T02:02:24.031Z,22.5
2017-10-17T02:03:32.085Z,22.5
2017-10-17T02:04:40.169Z,22.6
2017-10-17T02:05:48.257Z,22.5
2017-10-17T02:06:56.345Z,22.6
2017-10-17T02:08:04.433Z,22.6
2017-10-17T02:09:12.520Z,22.5
2017-10-17T02:10:20.611Z,22.6
2017-10-17T02:11:28.695Z,22.5
2017-10-17T02:12:36.782Z,22.5
2017-10-17T02:13:44.870Z,22.5
2017-10-17T02:14:52.975Z,22.5
2017-10-17T02:16:01.048Z,22.5
2017-10-17T02:17:09.131Z,22.4
2017-10-17T02:18:17.221Z,22.5
2017-10-17T02:19:25.307Z,22.5
2017-10-17T02:20:33.393Z,22.5
2017-10-17T02:21:41.480Z,22.5
2017-10-17T02:22:49.566Z,22.5
2017-10-17T02:23:57.653Z,22.6
2017-10-17T02:25:05.811Z,22.6
2017-10-17T02:26:13.831Z,22.5
2017-10-17T02:27:21.948Z,22.5
2017-10-17T02:28:30.012Z,22.5
2017-10-17T02:29:38.099Z,22.5
2017-10-17T02:30:46.188Z,22.5
2017-10-17T02:31:54.273Z,22.4
2017-10-17T02:33:02.361Z,22.4
2017-10-17T02:34:10.448Z,22.4
2017-10-17T02:35:18.536Z,22.4
2017-10-17T02:36:26.623Z,22.4
2017-10-17T02:37:34.711Z,22.4
2017-10-17T02:38:42.800Z,22.4
2017-10-17T02:39:50.887Z,22.4
2017-10-17T02:40:58.976Z,22.3
2017-10-17T02:42:07.069Z,22.4
2017-10-17T02:43:15.159Z,22.4
2017-10-17T02:44:23.238Z,22.3
2017-10-17T02:45:31.325Z,22.2
2017-10-17T02:46:39.420Z,22.4
2017-10-17T02:47:47.507Z,22.3
2017-10-17T02:48:55.595Z,22.2
2017-10-17T02:50:03.683Z,22.3
2017-10-17T02:51:11.777Z,22.2
2017-10-17T02:52:19.863Z,22.3
2017-10-17T02:53:28.019Z,22.3
2017-10-17T02:54:36.032Z,22.3
2017-10-17T02:55:44.121Z,22.2
2017-10-17T02:56:52.207Z,22.2
2017-10-17T02:58:00.296Z,22.3
2017-10-17T02:59:08.382Z,22.3
2017-10-17T03:00:16.470Z,22.3
2017-10-17T03:01:24.556Z,22.1
2017-10-17T03:02:32.648Z,22.2
2017-10-17T03:03:40.732Z,22.2
2017-10-17T03:04:48.822Z,22.2
2017-10-17T03:05:56.907Z,22.3
2017-10-17T03:07:04.992Z,22.2
2017-10-17T03:08:13.077Z,22.2
2017-10-17T03:09:21.166Z,22.2
2017-10-17T03:10:29.254Z,22.2
2017-10-17T03:11:37.343Z,22.2
2017-10-17T03:12:45.429Z,22.1
2017-10-17T03:13:53.515Z,22.2
2017-10-17T03:15:01.602Z,22.2
2017-10-17T03:16:09.696Z,22.2
2017-10-17T03:17:17.776Z,22.2
2017-10-17T03:18:25.861Z,22.1
2017-10-17T03:19:33.948Z,22.1
2017-10-17T03:20:42.037Z,22.2
2017-10-17T03:21:50.123Z,22.1
2017-10-17T03:22:58.212Z,22.1
2017-10-17T03:24:06.297Z,22.1
2017-10-17T03:25:14.385Z,22.1
2017-10-17T03:26:22.474Z,22.0
2017-10-17T03:27:30.562Z,22.1
2017-10-17T03:28:38.656Z,22.1
2017-10-17T03:29:46.748Z,22.1
2017-10-17T03:30:54.838Z,22.0
2017-10-17T03:32:02.927Z,22.0
2017-10-17T03:33:11.006Z,22.1
2017-10-17T03:34:19.108Z,22.0
2017-10-17T03:35:27.194Z,22.0
2017-10-17T03:36:35.477Z,22.0
2017-10-17T03:37:43.571Z,21.9
2017-10-17T03:38:52.086Z,21.9
2017-10-17T03:40:00.171Z,22.0
2017-10-17T03:41:08.256Z,22.0
2017-10-17T03:42:16.344Z,22.0
2017-10-17T03:43:24.432Z,22.0
2017-10-17T03:44:32.518Z,22.0
2017-10-17T03:45:40.621Z,21.9
2017-10-17T03:46:48.690Z,21.9
2017-10-17T03:47:56.781Z,21.9
2017-10-17T03:49:04.864Z,21.9
2017-10-17T03:50:12.950Z,21.9
2017-10-17T03:51:21.038Z,21.9
2017-10-17T03:52:29.125Z,21.8
2017-10-17T03:53:37.208Z,21.9
2017-10-17T03:54:45.294Z,21.9
2017-10-17T03:55:53.384Z,21.9
2017-10-17T03:57:01.470Z,22.0
2017-10-17T03:58:09.556Z,21.8
2017-10-17T03:59:17.645Z,21.8
2017-10-17T04:00:25.732Z,21.8
2017-10-17T04:01:33.819Z,21.8
2017-10-17T04:02:41.911Z,21.8
2017-10-17T04:03:49.987Z,21.8
2017-10-17T04:04:58.077Z,21.8
2017-10-17T04:06:06.164Z,21.8
2017-10-17T04:07:14.254Z,21.8
2017-10-17T04:08:22.335Z,21.8
2017-10-17T04:09:30.427Z,21.7
2017-10-17T04:10:38.508Z,21.7
2017-10-17T04:11:46.594Z,21.7
2017-10-17T04:12:54.684Z,21.7
2017-10-17T04:14:02.765Z,21.7
2017-10-17T04:15:10.863Z,21.7
2017-10-17T04:16:18.939Z,21.7
2017-10-17T04:17:27.039Z,21.7
2017-10-17T04:18:35.128Z,21.7
2017-10-17T04:19:43.208Z,21.6
2017-10-17T04:20:51.293Z,21.7
2017-10-17T04:21:59.379Z,21.7
2017-10-17T04:23:07.475Z,21.7
2017-10-17T04:24:15.570Z,21.6
2017-10-17T04:25:23.649Z,21.6
2017-10-17T04:26:31.736Z,21.7
2017-10-17T04:27:39.821Z,21.6
2017-10-17T04:28:47.908Z,21.7
2017-10-17T04:29:55.999Z,21.7
2017-10-17T04:31:04.103Z,21.7
2017-10-17T04:32:12.168Z,21.7
2017-10-17T04:33:20.254Z,21.6
2017-10-17T04:34:28.359Z,21.6
2017-10-17T04:35:36.947Z,21.6
2017-10-17T04:36:44.520Z,21.6
2017-10-17T04:37:52.605Z,21.6
2017-10-17T04:39:00.698Z,21.6
2017-10-17T04:40:08.772Z,21.7
2017-10-17T04:41:16.858Z,21.6
2017-10-17T04:42:24.945Z,21.6
2017-10-17T04:43:33.033Z,21.6
2017-10-17T04:44:41.120Z,21.6
2017-10-17T04:45:49.204Z,21.5
2017-10-17T04:46:57.292Z,21.6
2017-10-17T04:48:05.375Z,21.5
2017-10-17T04:49:13.462Z,21.6
2017-10-17T04:50:21.549Z,21.5
2017-10-17T04:51:29.635Z,21.5
2017-10-17T04:52:37.720Z,21.5
2017-10-17T04:53:45.807Z,21.5
2017-10-17T04:54:53.896Z,21.5
2017-10-17T04:56:01.998Z,21.5
2017-10-17T04:57:10.069Z,21.5
2017-10-17T04:58:18.154Z,21.5
2017-10-17T04:59:26.304Z,21.5
2017-10-17T05:00:34.324Z,21.5
2017-10-17T05:01:42.416Z,21.5
2017-10-17T05:02:50.498Z,21.5
2017-10-17T05:03:58.586Z,21.5
2017-10-17T05:05:06.690Z,21.4
2017-10-17T05:06:14.756Z,21.4
2017-10-17T05:07:22.842Z,21.3
2017-10-17T05:08:30.927Z,21.4
2017-10-17T05:09:39.045Z,21.4
2017-10-17T05:10:47.104Z,21.4
2017-10-17T05:11:55.191Z,21.4
2017-10-17T05:13:03.275Z,21.4
2017-10-17T05:14:11.361Z,21.4
2017-10-17T05:15:19.447Z,21.4
2017-10-17T05:16:27.533Z,21.4
2017-10-17T05:17:35.619Z,21.3
2017-10-17T05:18:43.704Z,21.3
2017-10-17T05:19:52.199Z,21.3
2017-10-17T05:20:59.893Z,21.4
2017-10-17T05:22:08.045Z,21.3
2017-10-17T05:23:16.072Z,21.4
2017-10-17T05:24:24.147Z,21.3
2017-10-17T05:25:32.229Z,21.3
2017-10-17T05:26:40.313Z,21.3
2017-10-17T05:27:48.398Z,21.3
2017-10-17T05:28:56.491Z,21.3
2017-10-17T05:30:04.575Z,21.2
2017-10-17T05:31:12.660Z,21.3
2017-10-17T05:32:20.749Z,21.3
2017-10-17T05:33:28.834Z,21.2
2017-10-17T05:34:37.019Z,21.3
2017-10-17T05:35:45.013Z,21.3
2017-10-17T05:36:53.093Z,21.2
2017-10-17T05:38:01.179Z,21.2
2017-10-17T05:39:09.266Z,21.2
2017-10-17T05:40:17.357Z,21.2
2017-10-17T05:41:25.457Z,21.1
2017-10-17T05:42:33.531Z,21.1
2017-10-17T05:43:41.621Z,21.2
2017-10-17T05:44:49.701Z,21.1
2017-10-17T05:45:57.788Z,21.2
2017-10-17T05:47:05.873Z,21.2
2017-10-17T05:48:13.960Z,21.1
2017-10-17T05:49:22.046Z,21.1
2017-10-17T05:50:30.132Z,21.1
2017-10-17T05:51:38.218Z,21.1
2017-10-17T05:52:46.306Z,21.2
2017-10-17T05:53:54.401Z,21.1
2017-10-17T05:55:02.476Z,21.0
2017-10-17T05:56:10.562Z,21.1
2017-10-17T05:57:18.646Z,21.1
2017-10-17T05:58:26.739Z,21.0
2017-10-17T05:59:34.830Z,21.1
2017-10-17T06:00:42.918Z,21.1
2017-10-17T06:01:51.003Z,21.1
2017-10-17T06:02:59.086Z,21.1
2017-10-17T06:04:07.177Z,21.1
2017-10-17T06:05:15.265Z,21.0
2017-10-17T06:06:23.349Z,21.1
2017-10-17T06:07:31.436Z,21.0
2017-10-17T06:08:39.522Z,21.0
2017-10-17T06:09:47.604Z,21.0
2017-10-17T06:10:55.690Z,21.0
2017-10-17T06:12:03.775Z,21.1
2017-10-17T06:13:11.859Z,21.0
2017-10-17T06:14:19.947Z,21.0
2017-10-17T06:15:28.038Z,21.0
2017-10-17T06:16:36.119Z,21.0
2017-10-17T06:17:44.205Z,21.0
2017-10-17T06:18:52.293Z,20.9
2017-10-17T06:20:00.378Z,20.9
2017-10-17T06:21:08.466Z,21.0
2017-10-17T06:22:16.590Z,20.9
2017-10-17T06:23:24.672Z,20.9
2017-10-17T06:24:32.763Z,20.9
2017-10-17T06:25:40.847Z,20.9
2017-10-17T06:26:48.934Z,21.0
2017-10-17T06:27:57.021Z,20.9
2017-10-17T06:29:05.105Z,20.9
2017-10-17T06:30:13.201Z,20.9
2017-10-17T06:31:21.285Z,20.9
2017-10-17T06:32:29.371Z,20.9
2017-10-17T06:33:37.457Z,20.9
2017-10-17T06:34:45.546Z,20.8
2017-10-17T06:35:53.631Z,20.9
2017-10-17T06:37:01.716Z,20.9
2017-10-17T06:38:09.802Z,20.8
2017-10-17T06:39:17.888Z,20.9
2017-10-17T06:40:25.974Z,20.9
2017-10-17T06:41:34.065Z,20.8
2017-10-17T06:42:42.152Z,20.8
2017-10-17T06:43:50.240Z,20.9
2017-10-17T06:44:58.319Z,20.9
2017-10-17T06:46:06.405Z,20.9
2017-10-17T06:47:14.494Z,20.9
2017-10-17T06:48:22.577Z,20.8
2017-10-17T06:49:30.664Z,20.8
2017-10-17T06:50:38.747Z,20.8
2017-10-17T06:51:46.837Z,20.8
2017-10-17T06:52:54.925Z,20.8
2017-10-17T06:54:03.007Z,20.8
2017-10-17T06:55:11.093Z,20.8
2017-10-17T06:56:19.178Z,20.8
2017-10-17T06:57:27.265Z,20.8
2017-10-17T06:58:35.350Z,20.9
2017-10-17T06:59:43.435Z,20.8
2017-10-17T07:00:51.519Z,20.8
2017-10-17T07:01:59.612Z,20.8
2017-10-17T07:03:07.692Z,20.7
2017-10-17T07:04:15.786Z,20.8
2017-10-17T07:05:23.866Z,20.7
2017-10-17T07:06:31.953Z,20.7
2017-10-17T07:07:40.039Z,20.7
2017-10-17T07:08:48.125Z,20.7
2017-10-17T07:09:56.216Z,20.7
2017-10-17T07:11:04.295Z,20.7
2017-10-17T07:12:12.381Z,20.7
2017-10-17T07:13:20.470Z,20.6
2017-10-17T07:14:28.552Z,20.7
2017-10-17T07:15:36.640Z,20.7
2017-10-17T07:16:44.726Z,20.7
2017-10-17T07:17:52.827Z,20.7
2017-10-17T07:19:00.900Z,20.7
2017-10-17T07:20:08.981Z,20.7
2017-10-17T07:21:17.067Z,20.6
2017-10-17T07:22:25.212Z,20.6
2017-10-17T07:23:33.249Z,20.7
2017-10-17T07:24:41.325Z,20.7
2017-10-17T07:25:49.423Z,20.6
2017-10-17T07:26:57.511Z,20.7
2017-10-17T07:28:05.594Z,20.6
2017-10-17T07:29:13.681Z,20.6
2017-10-17T07:30:21.767Z,20.7
2017-10-17T07:31:29.852Z,20.6
2017-10-17T07:32:37.938Z,20.6
2017-10-17T07:33:46.025Z,20.6
2017-10-17T07:34:54.110Z,20.6
2017-10-17T07:36:02.195Z,20.6
2017-10-17T07:37:10.278Z,20.6
2017-10-17T07:38:18.370Z,20.6
2017-10-17T07:39:26.455Z,20.6
2017-10-17T07:40:34.537Z,20.6
2017-10-17T07:41:42.623Z,20.6
2017-10-17T07:42:50.710Z,20.5
2017-10-17T07:43:58.798Z,20.6
2017-10-17T07:45:06.893Z,20.5
2017-10-17T07:46:14.970Z,20.6
2017-10-17T07:47:23.057Z,20.6
2017-10-17T07:48:31.145Z,20.5
2017-10-17T07:49:39.363Z,20.5
2017-10-17T07:50:47.424Z,20.5
2017-10-17T07:51:55.509Z,20.5
2017-10-17T07:53:03.596Z,20.5
2017-10-17T07:54:11.682Z,20.6
2017-10-17T07:55:19.768Z,20.5
2017-10-17T07:56:27.853Z,20.5
2017-10-17T07:57:35.939Z,20.6
2017-10-17T07:58:44.025Z,20.5
2017-10-17T07:59:52.108Z,20.5
2017-10-17T08:01:00.196Z,20.6
2017-10-17T08:02:08.280Z,20.5
2017-10-17T08:03:16.367Z,20.6
2017-10-17T08:04:24.452Z,20.5
2017-10-17T08:05:32.537Z,20.4
2017-10-17T08:06:40.623Z,20.5
2017-10-17T08:07:48.710Z,20.5
2017-10-17T08:08:56.793Z,20.5
2017-10-17T08:10:04.879Z,20.5
2017-10-17T08:11:12.970Z,20.4
2017-10-17T08:12:21.061Z,20.5
2017-10-17T08:13:29.148Z,20.6
2017-10-17T08:14:37.234Z,20.5
2017-10-17T08:15:45.341Z,20.5
2017-10-17T08:16:53.426Z,20.5
2017-10-17T08:18:01.511Z,20.6
2017-10-17T08:19:09.600Z,20.6
2017-10-17T08:20:17.691Z,20.5
2017-10-17T08:21:25.770Z,20.6
2017-10-17T08:22:33.855Z,20.5
2017-10-17T08:23:41.940Z,20.5
2017-10-17T08:24:50.028Z,20.5
2017-10-17T08:25:58.112Z,20.5
2017-10-17T08:27:06.198Z,20.5
2017-10-17T08:28:14.284Z,20.5
2017-10-17T08:29:22.517Z,20.5
2017-10-17T08:30:30.467Z,20.5
2017-10-17T08:31:38.565Z,20.5
2017-10-17T08:32:46.626Z,20.5
2017-10-17T08:33:54.715Z,20.6
2017-10-17T08:35:02.807Z,20.5
2017-10-17T08:36:10.888Z,20.5
2017-10-17T08:37:18.973Z,20.4
2017-10-17T08:38:27.057Z,20.5
2017-10-17T08:39:35.147Z,20.5
2017-10-17T08:40:43.240Z,20.5
2017-10-17T08:41:51.324Z,20.4
2017-10-17T08:42:59.412Z,20.5
2017-10-17T08:44:07.498Z,20.5
2017-10-17T08:45:15.607Z,20.5
2017-10-17T08:46:23.933Z,20.5
2017-10-17T08:47:31.758Z,20.5
2017-10-17T08:48:39.843Z,20.6
2017-10-17T08:49:48.006Z,20.6
2017-10-17T08:50:56.013Z,20.6
2017-10-17T08:52:04.126Z,20.6
2017-10-17T08:53:12.186Z,20.6
2017-10-17T08:54:20.296Z,20.6
2017-10-17T08:55:28.359Z,20.6
2017-10-17T08:56:36.458Z,20.6
2017-10-17T08:57:44.544Z,20.6
2017-10-17T08:58:52.631Z,20.6
2017-10-17T09:00:00.711Z,20.7
2017-10-17T09:01:08.804Z,20.6
2017-10-17T09:02:16.890Z,20.7
2017-10-17T09:03:24.976Z,20.7
2017-10-17T09:04:33.062Z,20.6
2017-10-17T09:05:41.146Z,20.7
2017-10-17T09:06:49.233Z,20.7
2017-10-17T09:07:57.319Z,20.7
2017-10-17T09:09:05.405Z,20.6
2017-10-17T09:10:13.493Z,20.6
2017-10-17T09:11:21.579Z,20.7
2017-10-17T09:12:29.663Z,20.7
2017-10-17T09:13:37.750Z,20.7
2017-10-17T09:14:45.835Z,20.6
2017-10-17T09:15:53.920Z,20.7
2017-10-17T09:17:02.012Z,20.7
2017-10-17T09:18:10.108Z,20.7
2017-10-17T09:19:18.185Z,20.7
2017-10-17T09:20:26.267Z,20.7
2017-10-17T09:21:34.353Z,20.7
2017-10-17T09:22:42.438Z,20.7
2017-10-17T09:23:50.524Z,20.7
2017-10-17T09:24:58.624Z,20.7
2017-10-17T09:26:06.694Z,20.7
2017-10-17T09:27:14.785Z,20.7
2017-10-17T09:28:22.869Z,20.7
2017-10-17T09:29:30.954Z,20.7
2017-10-17T09:30:39.039Z,20.7
2017-10-17T09:31:47.133Z,20.7
2017-10-17T09:32:55.211Z,20.7
2017-10-17T09:34:03.307Z,20.7
2017-10-17T09:35:11.394Z,20.7
2017-10-17T09:36:19.481Z,20.8
2017-10-17T09:37:27.570Z,20.8
2017-10-17T09:38:35.659Z,20.8
2017-10-17T09:39:43.747Z,20.8
2017-10-17T09:40:51.838Z,20.8
2017-10-17T09:41:59.935Z,20.9
2017-10-17T09:43:08.033Z,20.9
2017-10-17T09:44:16.129Z,20.7
2017-10-17T09:45:24.217Z,20.8
2017-10-17T09:46:32.303Z,20.8
2017-10-17T09:47:40.387Z,20.8
2017-10-17T09:48:48.475Z,20.8
2017-10-17T09:49:56.561Z,20.9
2017-10-17T09:51:04.647Z,20.9
2017-10-17T09:52:12.732Z,20.8
2017-10-17T09:53:20.818Z,20.9
2017-10-17T09:54:28.905Z,20.8
2017-10-17T09:55:36.991Z,20.8
2017-10-17T09:56:45.079Z,20.9
2017-10-17T09:57:53.166Z,20.8
2017-10-17T09:59:01.293Z,20.8
2017-10-17T10:00:09.337Z,20.9
2017-10-17T10:01:17.424Z,20.9
2017-10-17T10:02:25.549Z,20.8
2017-10-17T10:03:33.628Z,20.9
2017-10-17T10:04:41.714Z,20.9
2017-10-17T10:05:49.801Z,20.9
2017-10-17T10:06:57.890Z,20.9
2017-10-17T10:08:05.983Z,20.9
2017-10-17T10:09:14.063Z,20.9
2017-10-17T10:10:22.151Z,20.9
2017-10-17T10:11:30.235Z,20.9
2017-10-17T10:12:38.320Z,20.9
2017-10-17T10:13:46.406Z,20.9
2017-10-17T10:14:54.491Z,20.9
2017-10-17T10:16:02.583Z,20.9
2017-10-17T10:17:10.665Z,20.9
2017-10-17T10:18:18.752Z,20.9
2017-10-17T10:19:26.840Z,20.9
2017-10-17T10:20:34.926Z,20.9
2017-10-17T10:21:43.013Z,20.9
2017-10-17T10:22:51.098Z,20.9
2017-10-17T10:23:59.180Z,20.9
2017-10-17T10:25:07.268Z,21.0
2017-10-17T10:26:15.354Z,20.9
2017-10-17T10:27:23.441Z,20.9
2017-10-17T10:28:31.528Z,20.9
2017-10-17T10:29:39.615Z,21.0
2017-10-17T10:30:47.701Z,21.0
2017-10-17T10:31:55.788Z,20.9
2017-10-17T10:33:03.879Z,21.0
2017-10-17T10:34:11.960Z,21.0
2017-10-17T10:35:20.042Z,21.1
2017-10-17T10:36:28.130Z,20.9
2017-10-17T10:37:36.218Z,21.1
2017-10-17T10:38:44.305Z,21.0
2017-10-17T10:39:52.389Z,21.1
2017-10-17T10:41:00.475Z,21.1
2017-10-17T10:42:08.572Z,21.1
2017-10-17T10:43:16.677Z,21.0
2017-10-17T10:44:24.747Z,21.0
2017-10-17T10:45:32.833Z,21.0
2017-10-17T10:46:40.918Z,21.0
2017-10-17T10:47:49.005Z,21.1
2017-10-17T10:48:57.109Z,20.9
2017-10-17T10:50:05.177Z,21.0
2017-10-17T10:51:13.266Z,21.0
2017-10-17T10:52:21.490Z,21.0
2017-10-17T10:53:29.574Z,21.0
2017-10-17T10:54:37.669Z,21.0
2017-10-17T10:55:45.756Z,21.0
2017-10-17T10:56:53.844Z,21.1
2017-10-17T10:58:01.928Z,21.1
2017-10-17T10:59:10.013Z,21.1
2017-10-17T11:00:18.100Z,21.0
2017-10-17T11:01:26.186Z,21.1
2017-10-17T11:02:34.272Z,21.1
2017-10-17T11:03:42.359Z,21.1
2017-10-17T11:04:50.444Z,21.0
2017-10-17T11:05:58.532Z,21.1
2017-10-17T11:07:06.618Z,21.1
2017-10-17T11:08:14.704Z,21.0
2017-10-17T11:09:22.790Z,21.1
2017-10-17T11:10:30.876Z,21.1
2017-10-17T11:11:38.963Z,21.1
2017-10-17T11:12:47.050Z,21.1
2017-10-17T11:13:55.137Z,21.0
2017-10-17T11:15:03.234Z,21.1
2017-10-17T11:16:11.319Z,21.1
2017-10-17T11:17:19.410Z,21.1
2017-10-17T11:18:27.493Z,21.1
2017-10-17T11:19:35.578Z,21.1
2017-10-17T11:20:43.664Z,21.1
2017-10-17T11:21:51.751Z,21.0
2017-10-17T11:22:59.847Z,21.1
2017-10-17T11:24:07.938Z,21.0
2017-10-17T11:25:16.020Z,21.1
2017-10-17T11:26:24.107Z,21.1
2017-10-17T11:27:32.202Z,21.0
2017-10-17T11:28:40.308Z,21.1
2017-10-17T11:29:48.400Z,21.0
2017-10-17T11:30:56.486Z,21.1
2017-10-17T11:32:04.568Z,21.1
2017-10-17T11:33:12.656Z,21.0
2017-10-17T11:34:20.752Z,21.0
2017-10-17T11:35:28.837Z,21.1
2017-10-17T11:36:36.924Z,21.0
2017-10-17T11:37:45.011Z,21.1
2017-10-17T11:38:53.098Z,21.0
2017-10-17T11:40:01.186Z,21.0
2017-10-17T11:41:09.271Z,21.0
2017-10-17T11:42:17.365Z,21.0
2017-10-17T11:43:25.443Z,21.1
2017-10-17T11:44:33.573Z,21.0
2017-10-17T11:45:41.614Z,21.0
2017-10-17T11:46:49.703Z,21.1
2017-10-17T11:47:57.800Z,21.0
2017-10-17T11:49:05.887Z,21.1
2017-10-17T11:50:13.974Z,21.0
2017-10-17T11:51:22.060Z,21.1
2017-10-17T11:52:30.145Z,21.1
2017-10-17T11:53:38.228Z,21.1
2017-10-17T11:54:46.320Z,21.1
2017-10-17T11:55:54.410Z,21.1
2017-10-17T11:57:02.491Z,21.1
2017-10-17T11:58:10.578Z,21.1
2017-10-17T11:59:18.666Z,21.1
2017-10-17T12:00:26.750Z,21.1
2017-10-17T12:01:34.835Z,21.1
2017-10-17T12:02:42.925Z,21.0
2017-10-17T12:03:51.012Z,21.1
2017-10-17T12:04:59.097Z,21.0
2017-10-17T12:06:07.181Z,21.1
2017-10-17T12:07:15.268Z,21.0
2017-10-17T12:08:23.362Z,21.1
2017-10-17T12:09:31.443Z,21.1
2017-10-17T12:10:39.546Z,21.0
2017-10-17T12:11:47.614Z,21.1
2017-10-17T12:12:55.710Z,21.1
2017-10-17T12:14:03.817Z,21.1
2017-10-17T12:15:11.904Z,21.1
2017-10-17T12:16:19.991Z,21.1
2017-10-17T12:17:28.079Z,21.0
2017-10-17T12:18:36.165Z,21.0
2017-10-17T12:19:44.252Z,21.1
2017-10-17T12:20:52.340Z,21.1
2017-10-17T12:22:00.424Z,21.1
2017-10-17T12:23:08.510Z,21.1
2017-10-17T12:24:16.596Z,21.0
2017-10-17T12:25:24.683Z,21.2
2017-10-17T12:26:32.788Z,21.1
2017-10-17T12:27:40.860Z,21.1
2017-10-17T12:28:48.943Z,21.1
2017-10-17T12:29:57.029Z,21.0
2017-10-17T12:31:05.115Z,21.0
2017-10-17T12:32:13.204Z,21.1
2017-10-17T12:33:21.289Z,21.0
2017-10-17T12:34:29.374Z,21.1
2017-10-17T12:35:37.458Z,21.0
2017-10-17T12:36:45.545Z,21.1
2017-10-17T12:37:53.631Z,21.1
2017-10-17T12:39:01.722Z,21.1
2017-10-17T12:40:09.813Z,21.1
2017-10-17T12:41:17.896Z,21.0
2017-10-17T12:42:25.982Z,21.1
2017-10-17T12:43:34.070Z,21.0
2017-10-17T12:44:42.155Z,21.1
2017-10-17T12:45:50.242Z,21.1
2017-10-17T12:46:58.329Z,21.2
2017-10-17T12:48:06.426Z,21.1
2017-10-17T12:49:14.511Z,21.1
2017-10-17T12:50:22.619Z,21.1
2017-10-17T12:51:30.711Z,21.1
2017-10-17T12:52:38.794Z,21.1
2017-10-17T12:53:46.880Z,21.1
2017-10-17T12:54:54.968Z,21.0
2017-10-17T12:56:03.048Z,21.1
2017-10-17T12:57:11.141Z,21.1
2017-10-17T12:58:19.222Z,21.1
2017-10-17T12:59:27.308Z,21.2
2017-10-17T13:00:35.398Z,21.1
2017-10-17T13:01:43.482Z,21.1
2017-10-17T13:02:51.568Z,21.1
2017-10-17T13:03:59.659Z,21.1
2017-10-17T13:05:07.741Z,21.2
2017-10-17T13:06:15.835Z,21.1
2017-10-17T13:07:23.923Z,21.0
2017-10-17T13:08:32.013Z,21.1
2017-10-17T13:09:40.273Z,21.1
2017-10-17T13:10:48.358Z,21.1
2017-10-17T13:11:56.445Z,21.0
2017-10-17T13:13:04.554Z,21.1
2017-10-17T13:14:12.617Z,21.1
2017-10-17T13:15:20.702Z,21.0
2017-10-17T13:16:28.789Z,21.0
2017-10-17T13:17:36.878Z,21.1
2017-10-17T13:18:44.964Z,21.1
2017-10-17T13:19:53.049Z,21.1
2017-10-17T13:21:01.142Z,21.2
2017-10-17T13:22:09.223Z,21.1
2017-10-17T13:23:17.315Z,21.2
2017-10-17T13:24:25.395Z,21.0
2017-10-17T13:25:33.488Z,21.1
2017-10-17T13:26:41.584Z,21.1
2017-10-17T13:27:49.661Z,21.1
2017-10-17T13:28:57.746Z,21.1
2017-10-17T13:30:05.852Z,21.1
2017-10-17T13:31:13.920Z,21.1
2017-10-17T13:32:22.015Z,21.2
2017-10-17T13:33:30.090Z,21.1
2017-10-17T13:34:38.258Z,21.1
2017-10-17T13:35:46.266Z,21.1
2017-10-17T13:36:54.356Z,21.1
2017-10-17T13:38:02.438Z,21.1
2017-10-17T13:39:10.524Z,21.1
2017-10-17T13:40:18.608Z,21.2
2017-10-17T13:41:26.694Z,21.2
2017-10-17T13:42:34.779Z,21.2
2017-10-17T13:43:42.882Z,21.2
2017-10-17T13:44:50.953Z,21.2
2017-10-17T13:45:59.040Z,21.1
2017-10-17T13:47:07.126Z,21.1
2017-10-17T13:48:15.212Z,21.2
2017-10-17T13:49:23.305Z,21.2
2017-10-17T13:50:31.390Z,21.2
2017-10-17T13:51:39.470Z,21.2
2017-10-17T13:52:47.558Z,21.2
2017-10-17T13:53:55.643Z,21.2
2017-10-17T13:55:03.730Z,21.2
2017-10-17T13:56:11.829Z,21.2
2017-10-17T13:57:19.911Z,21.2
2017-10-17T13:58:27.997Z,21.2
2017-10-17T13:59:36.081Z,21.1
2017-10-17T14:00:44.168Z,21.1
2017-10-17T14:01:52.256Z,21.2
2017-10-17T14:03:00.344Z,21.1
2017-10-17T14:04:08.430Z,21.2
2017-10-17T14:05:16.515Z,21.2
2017-10-17T14:06:24.608Z,21.2
2017-10-17T14:07:32.690Z,21.2
2017-10-17T14:08:40.774Z,21.2
2017-10-17T14:09:48.860Z,21.1
2017-10-17T14:10:56.948Z,21.2
2017-10-17T14:12:05.035Z,21.2
2017-10-17T14:13:13.122Z,21.3
2017-10-17T14:14:21.209Z,21.3
2017-10-17T14:15:29.295Z,21.2
2017-10-17T14:16:37.382Z,21.3
2017-10-17T14:17:45.468Z,21.3
2017-10-17T14:18:53.553Z,21.2
2017-10-17T14:20:01.640Z,21.3
2017-10-17T14:21:09.727Z,21.2
2017-10-17T14:22:17.826Z,21.3
2017-10-17T14:23:25.912Z,21.2
2017-10-17T14:24:33.993Z,21.3
2017-10-17T14:25:42.081Z,21.3
2017-10-17T14:26:50.167Z,21.3
2017-10-17T14:27:58.263Z,21.4
2017-10-17T14:29:06.339Z,21.3
2017-10-17T14:30:14.430Z,21.3
2017-10-17T14:31:22.517Z,21.3
2017-10-17T14:32:30.602Z,21.3
2017-10-17T14:33:38.696Z,21.3
2017-10-17T14:34:46.774Z,21.3
2017-10-17T14:35:56.823Z,21.3
2017-10-17T14:37:02.948Z,21.3
2017-10-17T14:38:11.050Z,21.4
2017-10-17T14:39:19.212Z,21.3
2017-10-17T14:40:27.208Z,21.4
2017-10-17T14:41:35.295Z,21.3
2017-10-17T14:42:43.386Z,21.3
2017-10-17T14:43:51.468Z,21.3
2017-10-17T14:44:59.566Z,21.4
2017-10-17T14:46:07.641Z,21.3
2017-10-17T14:47:15.729Z,21.4
2017-10-17T14:48:23.832Z,21.3
2017-10-17T14:49:31.903Z,21.3
2017-10-17T14:50:39.989Z,21.4
2017-10-17T14:51:48.074Z,21.4
2017-10-17T14:52:56.164Z,21.3
2017-10-17T14:54:04.270Z,21.4
2017-10-17T14:55:12.333Z,21.3
2017-10-17T14:56:20.419Z,21.3
2017-10-17T14:57:28.509Z,21.3
2017-10-17T14:58:36.597Z,21.3
2017-10-17T14:59:44.702Z,21.3
2017-10-17T15:00:52.769Z,21.3
2017-10-17T15:02:00.857Z,21.4
2017-10-17T15:03:08.941Z,21.3
2017-10-17T15:04:17.037Z,21.3
2017-10-17T15:05:25.121Z,21.4
2017-10-17T15:06:33.209Z,21.3